Time;durP1;ratioP1;P1;durP2;ratioP2;P2;SDS_P1;SDS_P2;PMS_P1;PMS_P2;Temp;Humidity;BMP_temperature;BMP_pressure;BME280_temperature;BME280_humidity;BME280_pressure;Samples;Min_cycle;Max_cycle;Signal;HPM_P1;HPM_P2
2022/12/21 00:02:04;;;;;;;7.23;5.10;;;9.90;99.90;;;;;;5034589;28;20192;-44
2022/12/21 00:04:30;;;;;;;8.07;5.50;;;9.90;99.90;;;;;;5034427;28;20175;-43
2022/12/21 00:06:56;;;;;;;8.17;6.23;;;10.00;99.90;;;;;;5034042;28;20266;-42
2022/12/21 00:09:22;;;;;;;7.13;5.70;;;9.90;99.90;;;;;;5033634;28;20259;-43
2022/12/21 00:11:48;;;;;;;8.93;5.83;;;9.90;99.90;;;;;;5033797;28;20665;-42
2022/12/21 00:14:13;;;;;;;8.47;5.50;;;9.90;99.90;;;;;;5034181;28;20212;-43
2022/12/21 00:16:40;;;;;;;6.13;5.20;;;9.90;99.90;;;;;;5034099;28;20186;-44
2022/12/21 00:19:06;;;;;;;7.53;6.13;;;9.80;99.90;;;;;;5033909;28;20191;-43
2022/12/21 00:21:34;;;;;;;9.53;5.67;;;9.80;99.90;;;;;;5033567;28;20211;-41
2022/12/21 00:24:00;;;;;;;7.97;6.40;;;9.80;99.90;;;;;;5033571;28;20185;-43
2022/12/21 00:26:28;;;;;;;9.33;7.10;;;9.80;99.90;;;;;;5016048;28;20568;-43
2022/12/21 00:28:55;;;;;;;8.13;6.93;;;9.80;99.90;;;;;;5033802;28;20238;-46
2022/12/21 00:31:30;;;;;;;11.30;6.63;;;9.80;99.90;;;;;;5033661;28;20207;-45
2022/12/21 00:33:56;;;;;;;7.97;6.40;;;9.70;99.90;;;;;;5033675;28;20238;-43
2022/12/21 00:36:24;;;;;;;8.57;6.93;;;9.80;99.90;;;;;;5033719;28;20190;-44
2022/12/21 00:38:50;;;;;;;8.37;6.97;;;9.70;99.90;;;;;;5033654;28;20188;-43
2022/12/21 00:41:20;;;;;;;8.97;7.13;;;9.70;99.90;;;;;;5033326;28;20565;-46
2022/12/21 00:43:47;;;;;;;10.73;7.03;;;9.70;99.90;;;;;;5033633;28;20184;-43
2022/12/21 00:46:16;;;;;;;9.20;6.47;;;9.70;99.90;;;;;;5033566;28;20192;-42
2022/12/21 00:48:42;;;;;;;10.77;7.00;;;9.70;99.90;;;;;;5033321;28;20279;-42
2022/12/21 00:51:10;;;;;;;12.00;7.40;;;9.70;99.90;;;;;;5033225;28;20238;-43
2022/12/21 00:53:36;;;;;;;9.47;7.00;;;9.70;99.90;;;;;;5033185;28;20211;-44
2022/12/21 00:56:03;;;;;;;10.97;7.10;;;9.70;99.90;;;;;;5033413;28;20685;-45
2022/12/21 00:58:30;;;;;;;8.87;7.10;;;9.70;99.90;;;;;;5033012;28;20192;-43
2022/12/21 01:00:58;;;;;;;10.43;7.13;;;9.70;99.90;;;;;;5033489;28;20661;-43
2022/12/21 01:03:24;;;;;;;11.63;8.03;;;9.70;99.90;;;;;;5033141;28;20195;-45
2022/12/21 01:05:51;;;;;;;9.57;7.13;;;9.70;99.90;;;;;;5033463;28;20191;-41
2022/12/21 01:08:19;;;;;;;11.57;7.47;;;9.70;99.90;;;;;;5033306;28;20632;-44
2022/12/21 01:10:45;;;;;;;12.73;8.43;;;9.70;99.90;;;;;;5033308;28;20713;-45
2022/12/21 01:13:13;;;;;;;13.53;8.17;;;9.70;99.90;;;;;;5015391;28;20672;-43
2022/12/21 01:15:41;;;;;;;16.87;7.70;;;9.70;99.90;;;;;;5033447;28;20691;-45
2022/12/21 01:18:07;;;;;;;12.40;7.90;;;9.60;99.90;;;;;;5033072;28;20234;-45
2022/12/21 01:20:32;;;;;;;10.33;7.83;;;9.60;99.90;;;;;;5033089;28;20601;-43
2022/12/21 01:22:58;;;;;;;14.93;7.80;;;9.60;99.90;;;;;;5036748;28;20241;-44
2022/12/21 01:25:23;;;;;;;14.80;8.63;;;9.60;99.90;;;;;;5037038;28;20653;-44
2022/12/21 01:27:49;;;;;;;15.40;8.83;;;9.60;99.90;;;;;;5037069;28;20203;-44
2022/12/21 01:30:15;;;;;;;18.17;8.97;;;9.50;99.90;;;;;;5019029;28;20281;-44
2022/12/21 01:32:41;;;;;;;20.80;9.90;;;9.50;99.90;;;;;;5036743;28;20200;-45
2022/12/21 01:35:07;;;;;;;18.53;8.27;;;9.60;99.90;;;;;;5037177;28;20191;-43
2022/12/21 01:37:32;;;;;;;15.63;8.47;;;9.60;99.90;;;;;;5018942;28;20234;-46
2022/12/21 01:39:58;;;;;;;12.87;8.10;;;9.50;99.90;;;;;;5037004;28;20184;-42
2022/12/21 01:42:23;;;;;;;18.57;9.33;;;9.60;99.90;;;;;;5036534;28;20239;-46
2022/12/21 01:45:02;;;;;;;20.33;9.67;;;9.60;99.90;;;;;;5036556;28;20188;-43
2022/12/21 01:47:42;;;;;;;19.67;9.63;;;9.60;99.90;;;;;;5037249;28;20571;-45
2022/12/21 01:50:31;;;;;;;16.33;9.20;;;9.50;99.90;;;;;;5036476;28;20173;-44
2022/12/21 01:53:05;;;;;;;18.17;9.53;;;9.50;99.90;;;;;;5036327;28;20623;-42
2022/12/21 01:55:31;;;;;;;14.77;8.57;;;9.50;99.90;;;;;;5036622;28;20195;-45
2022/12/21 01:57:59;;;;;;;17.73;10.60;;;9.50;99.90;;;;;;5018528;28;20183;-44
2022/12/21 02:00:24;;;;;;;18.80;10.33;;;9.50;99.90;;;;;;5036184;28;20558;-44
2022/12/21 02:02:55;;;;;;;19.90;10.77;;;9.50;99.90;;;;;;5036456;28;20180;-42
2022/12/21 02:05:50;;;;;;;19.20;10.40;;;9.50;99.90;;;;;;5036500;28;20176;-43
2022/12/21 02:08:16;;;;;;;20.40;10.47;;;9.50;99.90;;;;;;5036461;28;20224;-45
2022/12/21 02:10:42;;;;;;;25.43;11.13;;;9.50;99.90;;;;;;5036331;28;20239;-45
2022/12/21 02:13:13;;;;;;;22.00;11.23;;;9.50;99.90;;;;;;5035985;28;20214;-46
2022/12/21 02:15:47;;;;;;;20.63;11.17;;;9.50;99.90;;;;;;5036349;28;20624;-44
2022/12/21 02:18:21;;;;;;;18.43;9.97;;;9.50;99.90;;;;;;5018268;28;20179;-44
2022/12/21 02:21:11;;;;;;;17.30;10.43;;;9.40;99.90;;;;;;5036032;28;20210;-45
2022/12/21 02:23:58;;;;;;;20.50;11.10;;;9.40;99.90;;;;;;5035928;28;20175;-45
2022/12/21 02:26:38;;;;;;;21.37;11.37;;;9.40;99.90;;;;;;5035977;28;20184;-45
2022/12/21 02:29:36;;;;;;;22.00;10.97;;;9.40;99.90;;;;;;5036617;28;20266;-46
2022/12/21 02:32:16;;;;;;;23.10;10.90;;;9.40;99.90;;;;;;5036132;28;20740;-46
2022/12/21 02:35:01;;;;;;;28.57;12.23;;;9.40;99.90;;;;;;5035764;28;20513;-43
2022/12/21 02:37:29;;;;;;;19.70;11.67;;;9.40;99.90;;;;;;5036779;28;20167;-44
2022/12/21 02:40:09;;;;;;;21.60;10.80;;;9.40;99.90;;;;;;5038072;28;20177;-43
2022/12/21 02:45:29;;;;;;;20.47;11.97;;;9.40;99.90;;;;;;5036754;28;20226;-41
2022/12/21 02:48:04;;;;;;;23.13;11.73;;;9.40;99.90;;;;;;5035765;28;20183;-44
2022/12/21 02:50:38;;;;;;;27.07;11.30;;;9.40;99.90;;;;;;5035309;28;20168;-40
2022/12/21 02:53:09;;;;;;;22.43;11.60;;;9.40;99.90;;;;;;5017507;28;20642;-42
2022/12/21 02:55:35;;;;;;;25.10;12.57;;;9.40;99.90;;;;;;5035605;28;20167;-42
2022/12/21 02:58:33;;;;;;;24.33;11.57;;;9.40;99.90;;;;;;5017450;28;20644;-44
2022/12/21 03:01:25;;;;;;;26.83;12.60;;;9.40;99.90;;;;;;5002081;28;20573;-44
2022/12/21 03:04:24;;;;;;;25.87;12.00;;;9.40;99.90;;;;;;5004297;28;20207;-42
2022/12/21 03:07:25;;;;;;;20.30;11.17;;;9.40;99.90;;;;;;5035470;28;20601;-41
2022/12/21 03:10:19;;;;;;;19.60;10.30;;;9.30;99.90;;;;;;5035042;28;20200;-44
2022/12/21 03:12:57;;;;;;;18.77;10.20;;;9.30;99.90;;;;;;5021644;28;20227;-44
2022/12/21 03:15:44;;;;;;;21.37;10.93;;;9.30;99.90;;;;;;5035199;28;20254;-43
2022/12/21 03:18:21;;;;;;;18.73;10.30;;;9.20;99.90;;;;;;5035154;28;20628;-45
2022/12/21 03:20:58;;;;;;;19.60;11.13;;;9.20;99.90;;;;;;5035113;28;20549;-43
2022/12/21 03:23:31;;;;;;;22.60;10.73;;;9.20;99.90;;;;;;5034760;28;20187;-45
2022/12/21 03:26:40;;;;;;;24.73;11.33;;;9.10;99.90;;;;;;5034739;28;20192;-43
2022/12/21 03:29:08;;;;;;;20.93;12.00;;;9.10;99.90;;;;;;5023805;28;20288;-42
2022/12/21 03:31:42;;;;;;;18.97;11.63;;;9.10;99.90;;;;;;5036436;28;20575;-44
2022/12/21 03:34:15;;;;;;;18.70;10.70;;;9.10;99.90;;;;;;5034819;28;20294;-45
2022/12/21 03:36:47;;;;;;;16.13;10.17;;;9.00;99.90;;;;;;5034524;28;20172;-45
2022/12/21 03:39:15;;;;;;;13.93;9.50;;;9.00;99.90;;;;;;5034793;28;20215;-45
2022/12/21 03:41:56;;;;;;;14.80;9.13;;;9.00;99.90;;;;;;5034360;28;20204;-45
2022/12/21 03:44:27;;;;;;;14.07;9.27;;;9.00;99.90;;;;;;5035114;28;20570;-45
2022/12/21 03:46:57;;;;;;;12.73;8.27;;;9.00;99.90;;;;;;5037133;28;20171;-45
2022/12/21 03:49:29;;;;;;;17.53;7.53;;;9.00;99.90;;;;;;5036590;28;20180;-45
2022/12/21 03:52:01;;;;;;;12.67;6.50;;;8.90;99.90;;;;;;5036615;28;20208;-45
2022/12/21 03:54:38;;;;;;;9.33;5.93;;;8.90;99.90;;;;;;5035395;28;20705;-46
2022/12/21 03:57:06;;;;;;;16.97;5.63;;;8.90;99.90;;;;;;5034150;28;20210;-43
2022/12/21 03:59:32;;;;;;;14.80;4.67;;;8.90;99.90;;;;;;5034112;28;20215;-42
2022/12/21 04:02:01;;;;;;;9.50;4.97;;;8.80;99.90;;;;;;5034181;28;20204;-45
2022/12/21 04:04:45;;;;;;;9.47;4.93;;;8.80;99.90;;;;;;5034167;28;20269;-42
2022/12/21 04:07:13;;;;;;;7.97;4.90;;;8.80;99.90;;;;;;5034382;28;20198;-44
2022/12/21 04:09:39;;;;;;;5.57;4.30;;;8.70;99.90;;;;;;5033909;28;20193;-44
2022/12/21 04:14:51;;;;;;;15.17;4.77;;;8.70;99.90;;;;;;5034130;28;20167;-43
2022/12/21 04:17:16;;;;;;;8.47;4.97;;;8.70;99.90;;;;;;5033661;28;20631;-44
2022/12/21 04:19:57;;;;;;;5.27;4.60;;;8.60;99.90;;;;;;5034056;28;20179;-45
2022/12/21 04:28:07;;;;;;;6.03;4.87;;;8.60;99.90;;;;;;5033849;28;20617;-43
2022/12/21 04:30:38;;;;;;;7.20;5.10;;;8.60;99.90;;;;;;5033720;28;20246;-43
2022/12/21 04:33:05;;;;;;;14.77;4.57;;;8.60;99.90;;;;;;5034280;28;20553;-43
2022/12/21 04:35:31;;;;;;;9.40;4.37;;;8.60;99.90;;;;;;5033673;28;20227;-43
2022/12/21 04:37:56;;;;;;;11.73;4.80;;;8.50;99.90;;;;;;5033483;28;20177;-43
2022/12/21 04:40:22;;;;;;;7.33;4.47;;;8.50;99.90;;;;;;5033389;28;20184;-43
2022/12/21 04:42:47;;;;;;;9.17;4.10;;;8.50;99.90;;;;;;5033429;28;20175;-43
2022/12/21 04:45:13;;;;;;;5.43;4.30;;;8.50;99.90;;;;;;5033572;28;20180;-39
2022/12/21 04:47:38;;;;;;;4.73;4.07;;;8.50;99.90;;;;;;5034128;28;20192;-44
2022/12/21 04:50:05;;;;;;;4.83;3.83;;;8.50;99.90;;;;;;5015603;28;20183;-42
2022/12/21 04:52:31;;;;;;;3.80;3.50;;;8.50;99.90;;;;;;5033351;28;20209;-44
2022/12/21 04:54:57;;;;;;;7.13;3.80;;;8.50;99.90;;;;;;5015589;28;20193;-44
2022/12/21 04:57:22;;;;;;;6.17;3.93;;;8.50;99.90;;;;;;5032665;28;20184;-46
2022/12/21 04:59:48;;;;;;;5.97;4.13;;;8.50;99.90;;;;;;5033097;28;20564;-44
2022/12/21 05:02:14;;;;;;;8.63;4.40;;;8.50;99.90;;;;;;5033261;28;20250;-45
2022/12/21 05:04:40;;;;;;;12.90;4.27;;;8.50;99.90;;;;;;5033767;28;20179;-46
2022/12/21 05:07:06;;;;;;;6.30;3.63;;;8.50;99.90;;;;;;5033470;28;20301;-43
2022/12/21 05:09:31;;;;;;;16.13;4.60;;;8.50;99.90;;;;;;5033619;28;20210;-43
2022/12/21 05:11:57;;;;;;;7.13;3.97;;;8.50;99.90;;;;;;5033474;28;20676;-43
2022/12/21 05:14:23;;;;;;;3.87;3.47;;;8.50;99.90;;;;;;5015454;28;20256;-43
2022/12/21 05:16:49;;;;;;;6.93;3.60;;;8.50;99.90;;;;;;5033336;28;20213;-42
2022/12/21 05:19:14;;;;;;;4.80;4.20;;;8.50;99.90;;;;;;5032964;28;20184;-45
2022/12/21 05:21:40;;;;;;;4.90;3.93;;;8.50;99.90;;;;;;5033351;28;20203;-44
2022/12/21 05:24:06;;;;;;;14.20;4.37;;;8.50;99.90;;;;;;5033299;28;20184;-43
2022/12/21 05:26:32;;;;;;;18.77;4.97;;;8.50;99.90;;;;;;5032976;28;20211;-43
2022/12/21 05:28:57;;;;;;;5.13;4.47;;;8.50;99.90;;;;;;5015360;28;20186;-42
2022/12/21 05:31:23;;;;;;;10.97;5.30;;;8.50;99.90;;;;;;5034147;28;20196;-41
2022/12/21 05:33:48;;;;;;;30.27;5.17;;;8.40;99.90;;;;;;5032762;28;20207;-44
2022/12/21 05:36:16;;;;;;;48.43;5.97;;;8.50;99.90;;;;;;5032892;28;20184;-44
2022/12/21 05:38:43;;;;;;;15.63;5.53;;;8.50;99.90;;;;;;5033474;28;20169;-43
2022/12/21 05:41:12;;;;;;;24.30;5.23;;;8.60;99.90;;;;;;5015111;28;20250;-44
2022/12/21 05:43:37;;;;;;;7.67;5.20;;;8.60;99.90;;;;;;5033018;28;20563;-45
2022/12/21 05:46:06;;;;;;;33.90;5.63;;;8.60;99.90;;;;;;5032844;28;20177;-42
2022/12/21 05:48:32;;;;;;;8.67;4.33;;;8.60;99.90;;;;;;5032763;28;20299;-44
2022/12/21 05:50:57;;;;;;;7.17;4.30;;;8.60;99.90;;;;;;5032819;28;20641;-43
2022/12/21 05:53:23;;;;;;;5.00;4.50;;;8.60;99.90;;;;;;5032634;28;20285;-45
2022/12/21 05:55:49;;;;;;;7.00;4.80;;;8.60;99.90;;;;;;5032917;28;20215;-45
2022/12/21 05:58:15;;;;;;;6.47;4.53;;;8.60;99.90;;;;;;5032836;28;20183;-41
2022/12/21 06:00:41;;;;;;;11.40;4.17;;;8.50;99.90;;;;;;5033306;28;20227;-42
2022/12/21 06:03:07;;;;;;;19.33;5.40;;;8.60;99.90;;;;;;5032949;28;20219;-43
2022/12/21 06:05:36;;;;;;;15.13;4.03;;;8.60;99.90;;;;;;5032638;28;20179;-43
2022/12/21 06:08:02;;;;;;;12.77;3.77;;;8.50;99.90;;;;;;5033132;28;20214;-43
2022/12/21 06:10:28;;;;;;;10.43;3.90;;;8.50;99.90;;;;;;5036450;28;20181;-43
2022/12/21 06:12:53;;;;;;;16.83;4.23;;;8.50;99.90;;;;;;5036002;28;20682;-45
2022/12/21 06:15:19;;;;;;;7.93;4.03;;;8.50;99.90;;;;;;5035997;28;20233;-43
2022/12/21 06:17:44;;;;;;;9.43;4.50;;;8.50;99.90;;;;;;5036040;28;20215;-44
2022/12/21 06:20:10;;;;;;;7.93;4.10;;;8.50;99.90;;;;;;5036187;28;20219;-45
2022/12/21 06:22:36;;;;;;;9.93;3.70;;;8.50;99.90;;;;;;5035846;28;20220;-43
2022/12/21 06:25:03;;;;;;;8.13;4.33;;;8.50;99.90;;;;;;5036159;28;20199;-44
2022/12/21 06:27:29;;;;;;;13.77;4.90;;;8.50;99.90;;;;;;5035690;28;20188;-44
2022/12/21 06:29:54;;;;;;;9.97;4.40;;;8.50;99.90;;;;;;5036031;28;20188;-42
2022/12/21 06:32:20;;;;;;;26.67;4.40;;;8.50;99.90;;;;;;5036256;28;20696;-45
2022/12/21 06:34:45;;;;;;;10.97;4.00;;;8.50;99.90;;;;;;5018540;28;20666;-46
2022/12/21 06:37:11;;;;;;;7.17;3.77;;;8.50;99.90;;;;;;5036752;28;20176;-44
2022/12/21 06:39:36;;;;;;;45.27;6.67;;;8.50;99.90;;;;;;5035830;28;20188;-43
2022/12/21 06:42:03;;;;;;;26.73;5.27;;;8.50;99.90;;;;;;5035670;28;20198;-46
2022/12/21 06:44:28;;;;;;;27.07;7.17;;;8.50;99.90;;;;;;5035810;28;20262;-41
2022/12/21 06:46:54;;;;;;;12.63;8.37;;;8.50;99.90;;;;;;5035278;28;20617;-44
2022/12/21 06:49:19;;;;;;;11.50;7.63;;;8.60;99.90;;;;;;5035269;28;20229;-42
2022/12/21 06:51:45;;;;;;;14.10;6.10;;;8.60;99.90;;;;;;5035341;28;20301;-41
2022/12/21 06:54:11;;;;;;;18.30;5.20;;;8.60;99.90;;;;;;5035813;28;20239;-43
2022/12/21 06:56:37;;;;;;;22.13;5.20;;;8.60;99.90;;;;;;5035639;28;20185;-43
2022/12/21 06:59:02;;;;;;;54.60;5.57;;;8.60;99.90;;;;;;5035267;28;20197;-43
2022/12/21 07:01:34;;;;;;;53.63;5.60;;;8.60;99.90;;;;;;5035081;28;20259;-43
2022/12/21 07:04:00;;;;;;;42.80;5.53;;;8.60;99.90;;;;;;5017466;28;20264;-43
2022/12/21 07:06:28;;;;;;;59.57;6.90;;;8.60;99.90;;;;;;5035307;28;20195;-44
2022/12/21 07:08:55;;;;;;;27.27;5.53;;;8.60;99.90;;;;;;5035013;28;20644;-44
2022/12/21 07:11:24;;;;;;;45.83;8.17;;;8.70;99.90;;;;;;5034884;28;20291;-45
2022/12/21 07:13:52;;;;;;;15.23;5.53;;;8.60;99.90;;;;;;5034979;28;20219;-44
2022/12/21 07:16:18;;;;;;;27.83;5.77;;;8.60;99.90;;;;;;5035294;28;20197;-44
2022/12/21 07:18:44;;;;;;;51.00;7.83;;;8.60;99.90;;;;;;5034769;28;20314;-45
2022/12/21 07:21:18;;;;;;;55.47;5.50;;;8.60;99.90;;;;;;5034837;28;20223;-45
2022/12/21 07:23:44;;;;;;;64.07;6.80;;;8.60;99.90;;;;;;5035380;28;20171;-46
2022/12/21 07:26:15;;;;;;;55.10;8.23;;;8.60;99.90;;;;;;5034734;28;20265;-44
2022/12/21 07:28:43;;;;;;;56.73;9.17;;;8.60;99.90;;;;;;5034943;28;20211;-43
2022/12/21 07:31:11;;;;;;;44.40;10.63;;;8.70;99.90;;;;;;5035099;28;20241;-43
2022/12/21 07:33:38;;;;;;;23.80;12.60;;;8.70;99.90;;;;;;5034550;28;20217;-44
2022/12/21 07:36:05;;;;;;;28.93;14.47;;;8.70;99.90;;;;;;5034673;28;20229;-43
2022/12/21 07:38:33;;;;;;;36.67;17.73;;;8.70;99.90;;;;;;5034792;28;20213;-45
2022/12/21 07:40:59;;;;;;;35.13;17.17;;;8.80;99.90;;;;;;5034655;28;20607;-43
2022/12/21 07:43:25;;;;;;;29.73;14.03;;;8.70;99.90;;;;;;5034433;28;20188;-41
2022/12/21 07:45:51;;;;;;;26.10;13.90;;;8.70;99.90;;;;;;5034474;28;20186;-43
2022/12/21 07:48:17;;;;;;;29.40;15.33;;;8.70;99.90;;;;;;5034935;28;20226;-49
2022/12/21 07:50:46;;;;;;;37.23;16.67;;;8.70;99.90;;;;;;5037478;28;20219;-45
2022/12/21 07:53:11;;;;;;;38.97;17.00;;;8.70;99.90;;;;;;5045826;28;20203;-45
2022/12/21 07:55:37;;;;;;;34.30;15.97;;;8.70;99.90;;;;;;5046899;28;20166;-44
2022/12/21 07:58:02;;;;;;;30.30;15.97;;;8.70;99.90;;;;;;5036329;28;20175;-42
2022/12/21 08:00:28;;;;;;;29.03;13.40;;;8.70;99.90;;;;;;5034348;28;20559;-44
2022/12/21 08:02:54;;;;;;;26.67;11.63;;;8.70;99.90;;;;;;5016344;28;20275;-43
2022/12/21 08:05:20;;;;;;;28.30;11.30;;;8.70;99.90;;;;;;5034069;28;20193;-43
2022/12/21 08:07:47;;;;;;;26.53;11.43;;;8.70;99.90;;;;;;5034156;28;20192;-42
2022/12/21 08:10:13;;;;;;;27.93;11.33;;;8.70;99.90;;;;;;5033909;28;20180;-43
2022/12/21 08:12:39;;;;;;;33.60;13.07;;;8.70;99.90;;;;;;5034078;28;20179;-45
2022/12/21 08:15:05;;;;;;;34.80;13.80;;;8.70;99.90;;;;;;5034165;28;20600;-42
2022/12/21 08:17:31;;;;;;;33.67;15.37;;;8.70;99.90;;;;;;5034049;28;20184;-45
2022/12/21 08:19:56;;;;;;;37.07;15.63;;;8.70;99.90;;;;;;5033698;28;20200;-44
2022/12/21 08:22:22;;;;;;;43.67;16.83;;;8.70;99.90;;;;;;5033832;28;20294;-43
2022/12/21 08:24:48;;;;;;;43.87;16.80;;;8.70;99.90;;;;;;5016150;28;20537;-45
2022/12/21 08:27:14;;;;;;;39.97;15.57;;;8.70;99.90;;;;;;5033588;28;20177;-43
2022/12/21 08:29:40;;;;;;;33.37;15.43;;;8.70;99.90;;;;;;5034123;28;20180;-44
2022/12/21 08:32:06;;;;;;;43.53;16.17;;;8.60;99.90;;;;;;5032816;28;20195;-43
2022/12/21 08:34:32;;;;;;;37.00;15.67;;;8.60;99.90;;;;;;5015747;28;20214;-44
2022/12/21 08:36:57;;;;;;;28.93;12.60;;;8.60;99.90;;;;;;5033382;28;20180;-43
2022/12/21 08:39:23;;;;;;;27.03;12.17;;;8.60;99.90;;;;;;5033633;28;20301;-45
2022/12/21 08:41:49;;;;;;;28.53;11.03;;;8.50;99.90;;;;;;5033350;28;20224;-46
2022/12/21 08:44:14;;;;;;;26.77;11.00;;;8.50;99.90;;;;;;5033611;28;20648;-44
2022/12/21 08:46:41;;;;;;;29.07;10.97;;;8.50;99.90;;;;;;5033259;28;20186;-44
2022/12/21 08:49:06;;;;;;;25.70;10.00;;;8.50;99.90;;;;;;5015641;28;20192;-47
2022/12/21 08:51:32;;;;;;;25.80;10.93;;;8.50;99.90;;;;;;5033221;28;20207;-42
2022/12/21 08:53:58;;;;;;;22.10;11.00;;;8.50;99.90;;;;;;5016327;28;20270;-42
2022/12/21 08:56:24;;;;;;;26.13;11.33;;;8.50;99.90;;;;;;5033544;28;20328;-43
2022/12/21 08:58:49;;;;;;;25.13;10.77;;;8.50;99.90;;;;;;5033396;28;20197;-45
2022/12/21 09:01:20;;;;;;;26.30;10.03;;;8.50;99.90;;;;;;5033419;28;20588;-41
2022/12/21 09:03:45;;;;;;;23.70;10.67;;;8.50;99.90;;;;;;5033323;28;20189;-45
2022/12/21 09:06:11;;;;;;;23.87;10.50;;;8.50;99.90;;;;;;5033383;28;20671;-42
2022/12/21 09:08:37;;;;;;;18.57;9.57;;;8.60;99.90;;;;;;5015363;28;20274;-43
2022/12/21 09:11:14;;;;;;;16.80;9.33;;;8.50;99.90;;;;;;5033277;28;20672;-44
2022/12/21 09:13:40;;;;;;;19.60;8.40;;;8.50;99.90;;;;;;5033212;28;20231;-44
2022/12/21 09:16:26;;;;;;;20.17;9.30;;;8.50;99.90;;;;;;5033087;28;20183;-43
2022/12/21 09:18:52;;;;;;;21.37;8.70;;;8.50;99.90;;;;;;5032869;28;20178;-43
2022/12/21 09:21:20;;;;;;;18.00;7.97;;;8.60;99.90;;;;;;5032960;28;20204;-44
2022/12/21 09:23:46;;;;;;;14.53;7.70;;;8.60;99.90;;;;;;5015270;28;20272;-46
2022/12/21 09:26:13;;;;;;;14.77;7.77;;;8.60;99.90;;;;;;5032943;28;20548;-47
2022/12/21 09:28:39;;;;;;;16.27;8.13;;;8.70;99.90;;;;;;5015201;28;20694;-44
2022/12/21 09:31:16;;;;;;;16.40;7.80;;;8.60;99.90;;;;;;5032835;28;20235;-45
2022/12/21 09:33:43;;;;;;;17.93;8.47;;;8.70;99.90;;;;;;5033362;28;20193;-44
2022/12/21 09:36:10;;;;;;;16.77;9.00;;;8.70;99.90;;;;;;5033230;28;20174;-46
2022/12/21 09:38:36;;;;;;;22.80;10.73;;;8.70;99.90;;;;;;5033050;28;20243;-44
2022/12/21 09:41:05;;;;;;;22.20;12.63;;;8.70;99.90;;;;;;5033062;28;20566;-45
2022/12/21 09:43:39;;;;;;;25.53;13.70;;;8.80;99.90;;;;;;5018000;28;20258;-45
2022/12/21 09:46:09;;;;;;;29.73;14.80;;;8.70;99.90;;;;;;5036867;28;20377;-46
2022/12/21 09:48:39;;;;;;;22.30;14.07;;;8.80;99.90;;;;;;5036540;28;20215;-43
2022/12/21 09:51:12;;;;;;;25.40;13.10;;;8.70;99.90;;;;;;5036496;28;20690;-43
2022/12/21 09:53:44;;;;;;;26.10;13.00;;;8.80;99.90;;;;;;5036680;28;20203;-43
2022/12/21 09:56:18;;;;;;;23.37;12.70;;;8.80;99.90;;;;;;5036931;28;20271;-46
2022/12/21 09:58:49;;;;;;;23.73;12.63;;;8.90;99.90;;;;;;5036397;28;20189;-45
2022/12/21 10:01:27;;;;;;;23.80;12.30;;;8.90;99.90;;;;;;5036538;28;20257;-45
2022/12/21 10:04:17;;;;;;;21.43;11.53;;;9.00;99.90;;;;;;5036567;28;20167;-46
2022/12/21 10:07:05;;;;;;;21.17;9.53;;;9.00;99.90;;;;;;5036449;28;20179;-45
2022/12/21 10:09:51;;;;;;;19.40;8.87;;;9.00;99.90;;;;;;5036484;28;20171;-44
2022/12/21 10:12:34;;;;;;;21.20;8.47;;;9.00;99.90;;;;;;5036313;28;20197;-43
2022/12/21 10:15:12;;;;;;;19.67;6.77;;;9.00;99.90;;;;;;5018304;28;20173;-43
2022/12/21 10:17:55;;;;;;;13.90;6.63;;;9.00;99.90;;;;;;5036033;28;20165;-43
2022/12/21 10:20:31;;;;;;;13.97;6.40;;;9.00;99.90;;;;;;5036044;28;20164;-43
2022/12/21 10:23:02;;;;;;;14.43;6.03;;;9.00;99.90;;;;;;5036260;28;20173;-45
2022/12/21 10:25:40;;;;;;;14.87;6.00;;;8.90;99.90;;;;;;5018200;28;20182;-45
2022/12/21 10:28:37;;;;;;;16.20;6.10;;;8.90;99.90;;;;;;5036164;28;20256;-43
2022/12/21 10:31:08;;;;;;;16.60;5.90;;;8.90;99.90;;;;;;5035918;28;20351;-42
2022/12/21 10:33:39;;;;;;;16.97;6.93;;;8.90;99.90;;;;;;5035969;28;20204;-42
2022/12/21 10:36:05;;;;;;;14.20;5.53;;;8.90;99.90;;;;;;5035840;28;20251;-41
2022/12/21 10:38:35;;;;;;;17.93;5.87;;;8.90;99.90;;;;;;5035665;28;20179;-43
2022/12/21 10:41:11;;;;;;;17.90;5.87;;;8.90;99.90;;;;;;5035490;28;20237;-41
2022/12/21 10:43:40;;;;;;;20.23;5.63;;;9.00;99.90;;;;;;5035835;28;20182;-41
2022/12/21 10:46:06;;;;;;;11.63;5.47;;;9.00;99.90;;;;;;5035541;28;20190;-43
2022/12/21 10:48:32;;;;;;;19.93;5.23;;;9.00;99.90;;;;;;5035732;28;20183;-43
2022/12/21 10:51:21;;;;;;;15.03;5.63;;;9.10;99.90;;;;;;5035334;28;20218;-41
2022/12/21 10:53:58;;;;;;;19.23;4.73;;;9.10;99.90;;;;;;5034781;28;20206;-42
2022/12/21 10:56:25;;;;;;;13.87;5.33;;;9.10;99.90;;;;;;5035336;28;20206;-42
2022/12/21 10:58:52;;;;;;;13.03;5.70;;;9.20;99.90;;;;;;5035021;28;20199;-43
2022/12/21 11:01:25;;;;;;;19.37;5.67;;;9.20;99.90;;;;;;5035058;28;20197;-45
2022/12/21 11:04:16;;;;;;;17.73;5.70;;;9.30;99.90;;;;;;5035245;28;20177;-44
2022/12/21 11:06:56;;;;;;;19.17;6.17;;;9.30;99.90;;;;;;5035207;28;20162;-45
2022/12/21 11:09:35;;;;;;;14.37;5.70;;;9.30;99.90;;;;;;5035636;28;20540;-42
2022/12/21 11:12:22;;;;;;;17.57;6.07;;;9.30;99.90;;;;;;5035221;28;20203;-43
2022/12/21 11:14:49;;;;;;;14.20;5.83;;;9.30;99.90;;;;;;5034938;28;20195;-43
2022/12/21 11:17:24;;;;;;;14.27;5.43;;;9.30;99.90;;;;;;5035932;28;20540;-44
2022/12/21 11:19:54;;;;;;;12.30;5.20;;;9.30;99.90;;;;;;5017101;28;20691;-43
2022/12/21 11:22:27;;;;;;;20.73;5.83;;;9.40;99.90;;;;;;5034715;28;20708;-42
2022/12/21 11:24:56;;;;;;;14.07;4.27;;;9.40;99.90;;;;;;5034786;28;20632;-45
2022/12/21 11:27:25;;;;;;;8.63;3.40;;;9.50;99.90;;;;;;5034908;28;20528;-44
2022/12/21 11:29:55;;;;;;;10.93;3.80;;;9.50;99.90;;;;;;5034625;28;20207;-43
2022/12/21 11:32:21;;;;;;;8.57;3.73;;;9.50;99.90;;;;;;5034768;28;20586;-45
2022/12/21 11:34:58;;;;;;;17.23;3.23;;;9.50;99.90;;;;;;5034591;28;20240;-44
2022/12/21 11:37:36;;;;;;;12.97;2.97;;;9.50;99.90;;;;;;5016881;28;20236;-44
2022/12/21 11:40:10;;;;;;;6.63;3.03;;;9.50;99.90;;;;;;5034653;28;20246;-43
2022/12/21 11:42:58;;;;;;;8.73;3.33;;;9.50;99.90;;;;;;5034258;28;20203;-45
2022/12/21 11:45:49;;;;;;;10.23;3.33;;;9.50;99.90;;;;;;5034738;28;20605;-44
2022/12/21 11:48:37;;;;;;;7.97;3.20;;;9.50;99.90;;;;;;5016556;28;20644;-44
2022/12/21 11:51:17;;;;;;;12.73;3.10;;;9.50;99.90;;;;;;5034216;28;20620;-44
2022/12/21 11:53:55;;;;;;;6.77;2.97;;;9.50;99.90;;;;;;5034412;28;20208;-46
2022/12/21 11:56:27;;;;;;;8.10;3.67;;;9.50;99.90;;;;;;5035158;28;20173;-43
2022/12/21 11:59:12;;;;;;;9.67;4.00;;;9.50;99.90;;;;;;5035546;28;20218;-45
2022/12/21 12:01:50;;;;;;;7.50;3.40;;;9.60;99.90;;;;;;5034785;28;20257;-43
2022/12/21 12:04:29;;;;;;;8.40;3.33;;;9.60;99.90;;;;;;5034265;28;20176;-42
2022/12/21 12:07:06;;;;;;;8.67;3.80;;;9.60;99.90;;;;;;5034209;28;20179;-44
2022/12/21 12:09:59;;;;;;;6.20;3.53;;;9.70;99.90;;;;;;5033937;28;20171;-43
2022/12/21 12:12:33;;;;;;;8.70;3.43;;;9.70;99.90;;;;;;5033886;28;20291;-43
2022/12/21 12:15:14;;;;;;;9.13;4.30;;;9.80;99.90;;;;;;5034072;28;20226;-44
2022/12/21 12:18:16;;;;;;;10.20;4.37;;;9.70;99.90;;;;;;5034060;28;20171;-44
2022/12/21 12:21:02;;;;;;;9.17;4.43;;;9.80;99.90;;;;;;5015958;28;20194;-43
2022/12/21 12:23:27;;;;;;;8.17;3.80;;;9.80;99.90;;;;;;5033963;28;20578;-44
2022/12/21 12:26:08;;;;;;;8.73;3.80;;;9.80;99.90;;;;;;5015933;28;20267;-50
2022/12/21 12:29:04;;;;;;;5.97;3.40;;;9.80;99.90;;;;;;5033885;28;20259;-50
2022/12/21 12:31:51;;;;;;;7.57;4.00;;;9.80;99.90;;;;;;5033826;28;20200;-48
2022/12/21 12:34:54;;;;;;;6.43;3.53;;;9.80;99.90;;;;;;5033660;28;20196;-50
2022/12/21 12:37:57;;;;;;;9.43;4.10;;;9.90;99.90;;;;;;5033772;28;20724;-51
2022/12/21 12:40:35;;;;;;;7.53;4.30;;;9.90;99.90;;;;;;5033656;28;20204;-51
2022/12/21 12:43:04;;;;;;;8.80;3.90;;;9.90;99.90;;;;;;5033640;28;20177;-49
2022/12/21 12:45:41;;;;;;;6.50;3.30;;;9.90;99.90;;;;;;5033876;28;20184;-49
2022/12/21 12:48:31;;;;;;;5.10;3.03;;;9.90;99.90;;;;;;5033590;28;20214;-49
2022/12/21 12:51:10;;;;;;;6.73;3.33;;;10.00;99.90;;;;;;5033275;28;20215;-49
2022/12/21 12:53:49;;;;;;;5.07;2.60;;;10.00;99.90;;;;;;5033750;28;20201;-52
2022/12/21 12:56:22;;;;;;;7.37;3.30;;;10.00;99.90;;;;;;5033545;28;20171;-49
2022/12/21 12:59:03;;;;;;;5.77;3.00;;;10.00;99.90;;;;;;5033252;28;20194;-50
2022/12/21 13:01:32;;;;;;;4.03;2.40;;;10.00;99.90;;;;;;5015409;28;20215;-50
2022/12/21 13:04:46;;;;;;;6.27;2.53;;;10.00;99.90;;;;;;5033086;28;20227;-50
2022/12/21 13:07:42;;;;;;;4.37;2.60;;;10.00;99.90;;;;;;4962760;28;20238;-51
2022/12/21 13:10:13;;;;;;;3.80;2.13;;;10.00;99.90;;;;;;5033146;28;20256;-49
2022/12/21 13:12:41;;;;;;;3.63;2.23;;;10.00;99.90;;;;;;5033340;28;20647;-51
2022/12/21 13:15:19;;;;;;;4.03;2.33;;;10.00;99.90;;;;;;5033611;28;20173;-49
2022/12/21 13:18:02;;;;;;;5.53;2.20;;;10.00;99.90;;;;;;5034954;28;20226;-51
2022/12/21 13:20:28;;;;;;;4.77;2.10;;;10.00;99.90;;;;;;5037268;28;20631;-50